Arbuckle, California
Current Conditions -  °F | °C
As of 11:53 AM on Monday 26 Jan 2015 (Local Time) from KMYV Reporting Station
Haze Haze  
Wind Chill: 55°   Ceiling: Unl
Heat Index: 55°   Visibility: 6mi
Dew Point: 47°   Wind: 8mph
Humidity: 74%   Direction: 240°WSW
Pressure: 30.04"   Gusts: NA
Location:  39.02°N, 122.06°W
Report Text: KMYV 261953Z AUTO 24007KT 6SM HZ CLR 13/08 A3004 RMK AO2 SLP177 T01280083
Loading
Personal Weather Stations






























Interactive Weather Map New forecast layout! Learn more

10-Day Weather Forecast

Advertisements
Track Severe Weather on mobile